createdAt,value
2017-03-15T00:00:03.200Z,73.61
2017-03-15T00:00:07.293Z,73.61
2017-03-15T00:00:11.625Z,73.23
2017-03-15T00:00:16.057Z,73.61
2017-03-15T00:00:20.138Z,73.61
2017-03-15T00:00:24.575Z,73.33
2017-03-15T00:00:29.050Z,73.42
2017-03-15T00:00:33.363Z,73.52
2017-03-15T00:00:37.545Z,73.52
2017-03-15T00:00:41.968Z,73.42
2017-03-15T00:00:46.295Z,73.52
2017-03-15T00:00:50.379Z,73.52
2017-03-15T00:00:54.461Z,73.52
2017-03-15T00:00:58.781Z,73.33
2017-03-15T00:01:03.308Z,73.14
2017-03-15T00:01:07.626Z,73.33
2017-03-15T00:01:12.062Z,73.42
2017-03-15T00:01:16.504Z,73.8
2017-03-15T00:01:20.867Z,73.23
2017-03-15T00:01:25.190Z,73.23
2017-03-15T00:01:29.622Z,73.52
2017-03-15T00:01:34.087Z,73.8
2017-03-15T00:01:38.414Z,73.71
2017-03-15T00:01:42.727Z,73.71
2017-03-15T00:01:46.951Z,73.8
2017-03-15T00:01:51.033Z,73.71
2017-03-15T00:01:55.479Z,73.71
2017-03-15T00:01:59.808Z,73.52
2017-03-15T00:02:04.328Z,73.52
2017-03-15T00:02:08.539Z,73.42
2017-03-15T00:02:12.973Z,73.8
2017-03-15T00:02:17.172Z,73.52
2017-03-15T00:02:21.253Z,73.52
2017-03-15T00:02:25.572Z,73.52
2017-03-15T00:02:29.897Z,73.8
2017-03-15T00:02:33.978Z,73.71
2017-03-15T00:02:38.304Z,73.61
2017-03-15T00:02:42.784Z,73.14
2017-03-15T00:02:47.101Z,73.9
2017-03-15T00:02:51.297Z,73.9
2017-03-15T00:02:55.725Z,73.71
2017-03-15T00:03:00.053Z,73.42
2017-03-15T00:03:04.494Z,73.42
2017-03-15T00:03:08.927Z,73.61
2017-03-15T00:03:13.244Z,73.71
2017-03-15T00:03:17.564Z,73.71
2017-03-15T00:03:21.796Z,73.61
2017-03-15T00:03:26.112Z,73.9
2017-03-15T00:03:30.427Z,73.42
2017-03-15T00:03:34.631Z,73.52
2017-03-15T00:03:38.945Z,73.9
2017-03-15T00:03:43.270Z,73.52
2017-03-15T00:03:47.585Z,73.61
2017-03-15T00:03:51.782Z,73.52
2017-03-15T00:03:55.996Z,73.52
2017-03-15T00:04:00.320Z,73.71
2017-03-15T00:04:04.748Z,73.8
2017-03-15T00:04:08.959Z,73.71
2017-03-15T00:04:13.396Z,73.42
2017-03-15T00:04:17.843Z,73.33
2017-03-15T00:04:22.279Z,73.23
2017-03-15T00:04:26.720Z,73.8
2017-03-15T00:04:31.162Z,73.52
2017-03-15T00:04:35.595Z,73.71
2017-03-15T00:04:40.025Z,73.52
2017-03-15T00:04:44.458Z,73.71
2017-03-15T00:04:48.810Z,73.9
2017-03-15T00:04:53.125Z,73.36
2017-03-15T00:04:57.326Z,73.33
2017-03-15T00:05:01.796Z,73.52
2017-03-15T00:05:06.105Z,73.33
2017-03-15T00:05:10.307Z,73.42
2017-03-15T00:05:14.625Z,73.33
2017-03-15T00:05:18.942Z,73.42
2017-03-15T00:05:23.272Z,73.42
2017-03-15T00:05:27.710Z,73.23
2017-03-15T00:05:31.921Z,73.42
2017-03-15T00:05:36.253Z,73.52
2017-03-15T00:05:40.681Z,73.36
2017-03-15T00:05:44.757Z,73.36
2017-03-15T00:05:49.196Z,73.61
2017-03-15T00:05:53.639Z,73.33
2017-03-15T00:05:57.960Z,73.42
2017-03-15T00:06:02.390Z,73.9
2017-03-15T00:06:06.706Z,73.33
2017-03-15T00:06:11.023Z,73.99
2017-03-15T00:06:15.466Z,73.46
2017-03-15T00:06:19.670Z,73.42
2017-03-15T00:06:23.871Z,73.9
2017-03-15T00:06:28.307Z,73.42
2017-03-15T00:06:32.505Z,73.36
2017-03-15T00:06:36.944Z,73.52
2017-03-15T00:06:41.375Z,73.46
2017-03-15T00:06:45.592Z,73.33
2017-03-15T00:06:49.798Z,73.52
2017-03-15T00:06:54.169Z,73.46
2017-03-15T00:06:58.368Z,73.52
2017-03-15T00:07:02.804Z,73.71
2017-03-15T00:07:06.895Z,73.18
2017-03-15T00:07:11.334Z,73.46
2017-03-15T00:07:15.762Z,73.23
2017-03-15T00:07:19.838Z,73.04
2017-03-15T00:07:24.274Z,73.33
2017-03-15T00:07:28.718Z,72.95
2017-03-15T00:07:33.167Z,72.95
2017-03-15T00:07:37.485Z,72.95
2017-03-15T00:07:41.918Z,72.89
2017-03-15T00:07:46.353Z,73.08
2017-03-15T00:07:50.670Z,73.08
2017-03-15T00:07:54.991Z,73.08
2017-03-15T00:07:59.422Z,73.23
2017-03-15T00:08:03.864Z,73.04
2017-03-15T00:08:07.945Z,73.33
2017-03-15T00:08:12.383Z,73.04
2017-03-15T00:08:16.699Z,73.04
2017-03-15T00:08:21.017Z,72.89
2017-03-15T00:08:25.453Z,73.33
2017-03-15T00:08:29.763Z,73.27
2017-03-15T00:08:34.093Z,73.33
2017-03-15T00:08:38.532Z,73.18
2017-03-15T00:08:42.850Z,73.36
2017-03-15T00:08:47.290Z,73.36
2017-03-15T00:08:51.621Z,73.08
2017-03-15T00:08:55.939Z,73.18
2017-03-15T00:09:00.124Z,73.08
2017-03-15T00:09:04.799Z,72.99
2017-03-15T00:09:09.101Z,72.89
2017-03-15T00:09:13.443Z,73.55
2017-03-15T00:09:17.761Z,73.04
2017-03-15T00:09:22.069Z,73.08
2017-03-15T00:09:26.401Z,72.95
2017-03-15T00:09:30.742Z,72.99
2017-03-15T00:09:35.165Z,72.85
2017-03-15T00:09:39.468Z,72.95
2017-03-15T00:09:43.773Z,72.99
2017-03-15T00:09:47.726Z,72.85
2017-03-15T00:09:51.797Z,72.99
2017-03-15T00:09:56.100Z,73.08
2017-03-15T00:10:00.517Z,73.08
2017-03-15T00:10:05.045Z,73.04
2017-03-15T00:10:09.471Z,73.04
2017-03-15T00:10:13.780Z,73.04
2017-03-15T00:10:18.222Z,73.04
2017-03-15T00:10:22.554Z,72.99
2017-03-15T00:10:26.991Z,72.95
2017-03-15T00:10:31.306Z,72.66
2017-03-15T00:10:35.626Z,72.85
2017-03-15T00:10:39.955Z,73.14
2017-03-15T00:10:44.155Z,73.08
2017-03-15T00:10:48.225Z,73.33
2017-03-15T00:10:52.660Z,73.36
2017-03-15T00:10:56.964Z,73.14
2017-03-15T00:11:01.386Z,73.23
2017-03-15T00:11:05.841Z,72.99
2017-03-15T00:11:10.148Z,73.27
2017-03-15T00:11:14.577Z,73.42
2017-03-15T00:11:18.887Z,73.33
2017-03-15T00:11:23.077Z,73.08
2017-03-15T00:11:27.503Z,73.27
2017-03-15T00:11:31.929Z,72.99
2017-03-15T00:11:36.357Z,73.18
2017-03-15T00:11:40.664Z,72.99
2017-03-15T00:11:44.852Z,73.04
2017-03-15T00:11:48.932Z,73.18
2017-03-15T00:11:53.360Z,72.75
2017-03-15T00:11:57.675Z,72.95
2017-03-15T00:12:02.122Z,73.52
2017-03-15T00:12:06.473Z,73.61
2017-03-15T00:12:10.674Z,72.99
2017-03-15T00:12:15.109Z,73.27
2017-03-15T00:12:19.306Z,73.18
2017-03-15T00:12:23.657Z,73.33
2017-03-15T00:12:28.089Z,73.52
2017-03-15T00:12:32.535Z,73.52
2017-03-15T00:12:36.851Z,73.08
2017-03-15T00:12:41.179Z,73.27
2017-03-15T00:12:45.500Z,73.36
2017-03-15T00:12:49.928Z,73.36
2017-03-15T00:12:54.243Z,73.27
2017-03-15T00:12:58.443Z,73.36
2017-03-15T00:13:03.200Z,73.23
2017-03-15T00:13:07.520Z,73.18
2017-03-15T00:13:11.953Z,73.18
2017-03-15T00:13:16.398Z,73.18
2017-03-15T00:13:20.605Z,73.55
2017-03-15T00:13:25.086Z,73.55
2017-03-15T00:13:29.407Z,73.36
2017-03-15T00:13:33.848Z,73.55
2017-03-15T00:13:37.931Z,73.55
2017-03-15T00:13:42.363Z,73.55
2017-03-15T00:13:46.565Z,73.36
2017-03-15T00:13:51.003Z,73.52
2017-03-15T00:13:55.319Z,73.55
2017-03-15T00:13:59.650Z,73.65
2017-03-15T00:14:03.965Z,73.61
2017-03-15T00:14:08.051Z,73.36
2017-03-15T00:14:12.363Z,73.08
2017-03-15T00:14:16.674Z,73.42
2017-03-15T00:14:20.871Z,73.18
2017-03-15T00:14:25.309Z,73.04
2017-03-15T00:14:29.788Z,73.08
2017-03-15T00:14:34.230Z,73.65
2017-03-15T00:14:38.439Z,73.36
2017-03-15T00:14:42.762Z,72.89
2017-03-15T00:14:47.078Z,73.55
2017-03-15T00:14:51.403Z,73.04
2017-03-15T00:14:55.833Z,73.55
2017-03-15T00:15:00.157Z,73.55
2017-03-15T00:15:04.620Z,73.55
2017-03-15T00:15:08.928Z,73.55
2017-03-15T00:15:13.244Z,73.55
2017-03-15T00:15:17.682Z,73.04
2017-03-15T00:15:21.998Z,73.08
2017-03-15T00:15:26.434Z,73.27
2017-03-15T00:15:30.866Z,73.08
2017-03-15T00:15:35.190Z,73.27
2017-03-15T00:15:39.514Z,73.08
2017-03-15T00:15:43.951Z,72.95
2017-03-15T00:15:48.267Z,73.27
2017-03-15T00:15:52.716Z,72.95
2017-03-15T00:15:57.164Z,73.08
2017-03-15T00:16:01.784Z,73.04
2017-03-15T00:16:06.218Z,73.55
2017-03-15T00:16:10.410Z,73.27
2017-03-15T00:16:14.840Z,73.08
2017-03-15T00:16:19.151Z,72.85
2017-03-15T00:16:23.587Z,73.18
2017-03-15T00:16:28.031Z,73.27
2017-03-15T00:16:32.115Z,73.36
2017-03-15T00:16:36.565Z,73.14
2017-03-15T00:16:40.921Z,73.27
2017-03-15T00:16:45.246Z,73.36
2017-03-15T00:16:49.570Z,73.46
2017-03-15T00:16:54.016Z,72.89
2017-03-15T00:16:58.327Z,72.89
2017-03-15T00:17:02.795Z,73.27
2017-03-15T00:17:07.113Z,73.42
2017-03-15T00:17:11.553Z,72.75
2017-03-15T00:17:15.986Z,72.99
2017-03-15T00:17:20.303Z,72.85
2017-03-15T00:17:24.751Z,72.79
2017-03-15T00:17:29.227Z,72.85
2017-03-15T00:17:33.429Z,72.99
2017-03-15T00:17:37.745Z,72.99
2017-03-15T00:17:42.068Z,72.85
2017-03-15T00:17:46.424Z,72.89
2017-03-15T00:17:50.753Z,72.41
2017-03-15T00:17:55.077Z,72.38
2017-03-15T00:17:59.399Z,72.41
2017-03-15T00:18:04.099Z,72.89
2017-03-15T00:18:08.298Z,72.89
2017-03-15T00:18:12.503Z,72.79
2017-03-15T00:18:16.821Z,72.95
2017-03-15T00:18:21.155Z,72.95
2017-03-15T00:18:25.591Z,73.04
2017-03-15T00:18:29.904Z,73.08
2017-03-15T00:18:34.228Z,72.79
2017-03-15T00:18:38.431Z,73.08
2017-03-15T00:18:42.754Z,72.89
2017-03-15T00:18:47.078Z,72.95
2017-03-15T00:18:51.508Z,72.99
2017-03-15T00:18:55.950Z,72.99
2017-03-15T00:19:00.270Z,72.56
2017-03-15T00:19:04.740Z,72.38
2017-03-15T00:19:09.185Z,73.04
2017-03-15T00:19:13.610Z,72.51
2017-03-15T00:19:18.048Z,72.89
2017-03-15T00:19:22.485Z,72.66
2017-03-15T00:19:26.843Z,72.41
2017-03-15T00:19:31.276Z,72.47
2017-03-15T00:19:35.599Z,72.38
2017-03-15T00:19:40.047Z,72.41
2017-03-15T00:19:44.368Z,72.41
2017-03-15T00:19:48.581Z,72.85
2017-03-15T00:19:52.781Z,73.08
2017-03-15T00:19:57.221Z,72.75
2017-03-15T00:20:01.747Z,72.95
2017-03-15T00:20:06.066Z,72.79
2017-03-15T00:20:10.274Z,72.7
2017-03-15T00:20:14.478Z,72.99
2017-03-15T00:20:18.721Z,72.51
2017-03-15T00:20:23.037Z,72.79
2017-03-15T00:20:27.471Z,73.18
2017-03-15T00:20:31.677Z,73.23
2017-03-15T00:20:35.995Z,72.89
2017-03-15T00:20:40.315Z,72.79
2017-03-15T00:20:44.631Z,72.79
2017-03-15T00:20:48.957Z,72.79
2017-03-15T00:20:53.404Z,72.85
2017-03-15T00:20:57.723Z,73.08
2017-03-15T00:21:02.363Z,72.41
2017-03-15T00:21:06.693Z,72.99
2017-03-15T00:21:11.002Z,72.38
2017-03-15T00:21:15.429Z,72.47
2017-03-15T00:21:19.866Z,72.99
2017-03-15T00:21:24.320Z,72.75
2017-03-15T00:21:28.754Z,72.66
2017-03-15T00:21:33.059Z,72.56
2017-03-15T00:21:37.388Z,72.75
2017-03-15T00:21:41.826Z,72.75
2017-03-15T00:21:46.258Z,72.95
2017-03-15T00:21:50.343Z,72.95
2017-03-15T00:21:54.666Z,72.75
2017-03-15T00:21:59.039Z,72.38
2017-03-15T00:22:03.477Z,72.41
2017-03-15T00:22:07.719Z,72.51
2017-03-15T00:22:11.917Z,72.85
2017-03-15T00:22:16.349Z,72.75
2017-03-15T00:22:20.553Z,72.6
2017-03-15T00:22:24.754Z,72.99
2017-03-15T00:22:29.208Z,72.89
2017-03-15T00:22:33.413Z,72.75
2017-03-15T00:22:37.614Z,72.85
2017-03-15T00:22:42.063Z,72.79
2017-03-15T00:22:46.381Z,72.85
2017-03-15T00:22:50.588Z,72.51
2017-03-15T00:22:55.040Z,72.89
2017-03-15T00:22:59.241Z,72.6
2017-03-15T00:23:03.442Z,72.85
2017-03-15T00:23:07.775Z,72.41
2017-03-15T00:23:12.091Z,73.23
2017-03-15T00:23:16.518Z,72.85
2017-03-15T00:23:20.602Z,72.99
2017-03-15T00:23:24.922Z,72.41
2017-03-15T00:23:29.134Z,72.56
2017-03-15T00:23:33.453Z,72.85
2017-03-15T00:23:37.653Z,72.95
2017-03-15T00:23:42.093Z,72.79
2017-03-15T00:23:46.414Z,72.89
2017-03-15T00:23:50.734Z,72.6
2017-03-15T00:23:55.057Z,72.79
2017-03-15T00:23:59.379Z,72.6
2017-03-15T00:24:03.696Z,72.79
2017-03-15T00:24:07.897Z,72.85
2017-03-15T00:24:12.217Z,72.95
2017-03-15T00:24:16.411Z,72.95
2017-03-15T00:24:20.730Z,72.89
2017-03-15T00:24:25.169Z,72.85
2017-03-15T00:24:29.616Z,72.56
2017-03-15T00:24:34.050Z,72.85
2017-03-15T00:24:38.365Z,72.75
2017-03-15T00:24:42.803Z,72.75
2017-03-15T00:24:47.243Z,72.95
2017-03-15T00:24:51.246Z,72.95
2017-03-15T00:24:55.683Z,72.95
2017-03-15T00:24:59.885Z,72.85
2017-03-15T00:25:04.198Z,73.04
2017-03-15T00:25:08.530Z,72.66
2017-03-15T00:25:12.964Z,73.04
2017-03-15T00:25:17.408Z,72.79
2017-03-15T00:25:21.605Z,72.85
2017-03-15T00:25:25.928Z,72.79
2017-03-15T00:25:30.155Z,72.99
2017-03-15T00:25:34.462Z,72.85
2017-03-15T00:25:38.666Z,72.66
2017-03-15T00:25:43.106Z,72.7
2017-03-15T00:25:47.442Z,72.99
2017-03-15T00:25:51.879Z,72.66
2017-03-15T00:25:56.098Z,72.66
2017-03-15T00:26:00.542Z,72.95
2017-03-15T00:26:05.226Z,72.66
2017-03-15T00:26:09.653Z,72.85
2017-03-15T00:26:13.969Z,72.79
2017-03-15T00:26:18.285Z,72.66
2017-03-15T00:26:22.491Z,72.7
2017-03-15T00:26:26.929Z,73.23
2017-03-15T00:26:31.258Z,72.79
2017-03-15T00:26:35.464Z,72.85
2017-03-15T00:26:39.913Z,72.95
2017-03-15T00:26:44.228Z,72.85
2017-03-15T00:26:48.425Z,72.7
2017-03-15T00:26:52.629Z,72.56
2017-03-15T00:26:56.607Z,72.75
2017-03-15T00:27:00.847Z,72.95
2017-03-15T00:27:05.164Z,72.75
2017-03-15T00:27:09.598Z,72.75
2017-03-15T00:27:14.028Z,72.95
2017-03-15T00:27:18.339Z,73.04
2017-03-15T00:27:22.782Z,72.66
2017-03-15T00:27:27.209Z,72.95
2017-03-15T00:27:31.405Z,72.85
2017-03-15T00:27:35.841Z,72.95
2017-03-15T00:27:40.165Z,72.95
2017-03-15T00:27:44.605Z,72.85
2017-03-15T00:27:48.924Z,72.66
2017-03-15T00:27:53.364Z,73.14
2017-03-15T00:27:57.575Z,72.66
2017-03-15T00:28:01.897Z,72.75
2017-03-15T00:28:06.216Z,72.66
2017-03-15T00:28:10.654Z,72.66
2017-03-15T00:28:15.076Z,72.66
2017-03-15T00:28:19.040Z,72.95
2017-03-15T00:28:23.390Z,72.66
2017-03-15T00:28:27.592Z,72.75
2017-03-15T00:28:32.029Z,72.75
2017-03-15T00:28:36.461Z,72.95
2017-03-15T00:28:40.788Z,72.75
2017-03-15T00:28:45.223Z,72.75
2017-03-15T00:28:49.536Z,72.75
2017-03-15T00:28:53.971Z,72.66
2017-03-15T00:28:58.181Z,72.75
2017-03-15T00:29:02.614Z,72.85
2017-03-15T00:29:06.928Z,72.75
2017-03-15T00:29:11.360Z,72.75
2017-03-15T00:29:15.795Z,72.66
2017-03-15T00:29:20.036Z,72.75
2017-03-15T00:29:24.464Z,72.75
2017-03-15T00:29:28.896Z,72.85
2017-03-15T00:29:33.214Z,72.75
2017-03-15T00:29:37.417Z,72.85
2017-03-15T00:29:41.774Z,72.75
2017-03-15T00:29:46.213Z,72.75
2017-03-15T00:29:50.532Z,72.85
2017-03-15T00:29:54.740Z,72.75
2017-03-15T00:29:58.947Z,72.75
2017-03-15T00:30:03.258Z,72.66
2017-03-15T00:30:07.693Z,72.66
2017-03-15T00:30:11.771Z,73.23
2017-03-15T00:30:16.213Z,72.75
2017-03-15T00:30:20.526Z,72.75
2017-03-15T00:30:24.960Z,72.95
2017-03-15T00:30:29.401Z,72.85
2017-03-15T00:30:33.726Z,72.95
2017-03-15T00:30:37.940Z,72.75
2017-03-15T00:30:42.260Z,72.75
2017-03-15T00:30:46.457Z,72.75
2017-03-15T00:30:50.778Z,72.95
2017-03-15T00:30:55.214Z,72.75
2017-03-15T00:30:59.545Z,73.14
2017-03-15T00:31:03.977Z,72.95
2017-03-15T00:31:08.291Z,73.04
2017-03-15T00:31:12.610Z,73.14
2017-03-15T00:31:17.070Z,72.95
2017-03-15T00:31:21.270Z,72.95
2017-03-15T00:31:25.699Z,72.95
2017-03-15T00:31:30.151Z,72.75
2017-03-15T00:31:34.503Z,73.14
2017-03-15T00:31:38.821Z,73.14
2017-03-15T00:31:43.257Z,73.33
2017-03-15T00:31:47.701Z,73.04
2017-03-15T00:31:52.018Z,72.95
2017-03-15T00:31:56.340Z,73.04
2017-03-15T00:32:00.691Z,73.33
2017-03-15T00:32:05.477Z,73.33
2017-03-15T00:32:09.916Z,73.23
2017-03-15T00:32:14.249Z,73.14
2017-03-15T00:32:18.566Z,73.23
2017-03-15T00:32:22.764Z,73.23
2017-03-15T00:32:27.196Z,73.42
2017-03-15T00:32:31.649Z,73.23
2017-03-15T00:32:35.974Z,72.66
2017-03-15T00:32:40.173Z,73.23
2017-03-15T00:32:44.491Z,72.95
2017-03-15T00:32:48.931Z,73.23
2017-03-15T00:32:53.411Z,72.95
2017-03-15T00:32:57.724Z,73.52
2017-03-15T00:33:02.456Z,73.23
2017-03-15T00:33:06.661Z,73.23
2017-03-15T00:33:10.976Z,72.66
2017-03-15T00:33:15.422Z,72.95
2017-03-15T00:33:19.763Z,73.04
2017-03-15T00:33:24.239Z,73.04
2017-03-15T00:33:28.562Z,73.14
2017-03-15T00:33:32.763Z,73.14
2017-03-15T00:33:37.083Z,73.04
2017-03-15T00:33:41.518Z,73.33
2017-03-15T00:33:45.951Z,73.33
2017-03-15T00:33:50.035Z,72.95
2017-03-15T00:33:54.473Z,73.33
2017-03-15T00:33:58.447Z,73.33
2017-03-15T00:34:02.884Z,72.85
2017-03-15T00:34:07.200Z,72.95
2017-03-15T00:34:11.402Z,73.52
2017-03-15T00:34:15.833Z,73.52
2017-03-15T00:34:20.270Z,72.85
2017-03-15T00:34:24.742Z,73.33
2017-03-15T00:34:29.176Z,73.52
2017-03-15T00:34:33.607Z,73.52
2017-03-15T00:34:37.927Z,73.42
2017-03-15T00:34:42.371Z,73.33
2017-03-15T00:34:46.696Z,73.71
2017-03-15T00:34:51.013Z,73.61
2017-03-15T00:34:55.090Z,73.71
2017-03-15T00:34:59.522Z,73.14
2017-03-15T00:35:03.711Z,73.23
2017-03-15T00:35:07.909Z,73.71
2017-03-15T00:35:12.345Z,73.23
2017-03-15T00:35:16.779Z,73.23
2017-03-15T00:35:21.091Z,73.52
2017-03-15T00:35:25.531Z,73.61
2017-03-15T00:35:29.848Z,73.42
2017-03-15T00:35:34.044Z,73.42
2017-03-15T00:35:38.352Z,73.52
2017-03-15T00:35:42.567Z,73.8
2017-03-15T00:35:46.764Z,73.71
2017-03-15T00:35:51.202Z,73.8
2017-03-15T00:35:55.640Z,73.8
2017-03-15T00:35:59.963Z,73.52
2017-03-15T00:36:04.285Z,73.61
2017-03-15T00:36:08.364Z,73.8
2017-03-15T00:36:12.799Z,73.71
2017-03-15T00:36:17.228Z,73.61
2017-03-15T00:36:21.198Z,73.52
2017-03-15T00:36:25.399Z,73.71
2017-03-15T00:36:29.717Z,73.61
2017-03-15T00:36:34.036Z,73.71
2017-03-15T00:36:38.240Z,73.14
2017-03-15T00:36:42.557Z,73.23
2017-03-15T00:36:46.879Z,73.61
2017-03-15T00:36:51.317Z,73.52
2017-03-15T00:36:55.759Z,73.99
2017-03-15T00:36:59.966Z,73.9
2017-03-15T00:37:04.411Z,73.42
2017-03-15T00:37:08.858Z,73.52
2017-03-15T00:37:13.180Z,73.33
2017-03-15T00:37:17.499Z,73.71
2017-03-15T00:37:21.828Z,73.9
2017-03-15T00:37:26.261Z,73.61
2017-03-15T00:37:30.571Z,73.71
2017-03-15T00:37:35.002Z,73.71
2017-03-15T00:37:39.318Z,73.8
2017-03-15T00:37:43.642Z,73.71
2017-03-15T00:37:47.837Z,73.14
2017-03-15T00:37:51.915Z,73.8
2017-03-15T00:37:56.245Z,73.04
2017-03-15T00:38:00.219Z,73.33
2017-03-15T00:38:04.854Z,73.04
2017-03-15T00:38:09.060Z,73.33
2017-03-15T00:38:13.498Z,73.42
2017-03-15T00:38:17.933Z,73.52
2017-03-15T00:38:22.250Z,73.52
2017-03-15T00:38:26.703Z,73.52
2017-03-15T00:38:31.143Z,73.52
2017-03-15T00:38:35.468Z,73.71
2017-03-15T00:38:39.906Z,73.33
2017-03-15T00:38:44.340Z,73.61
2017-03-15T00:38:48.307Z,73.04
2017-03-15T00:38:52.749Z,73.61
2017-03-15T00:38:57.070Z,73.42
2017-03-15T00:39:01.506Z,73.71
2017-03-15T00:39:05.941Z,73.71
2017-03-15T00:39:10.149Z,73.23
2017-03-15T00:39:14.577Z,73.42
2017-03-15T00:39:18.895Z,73.8
2017-03-15T00:39:23.091Z,73.71
2017-03-15T00:39:27.529Z,73.71
2017-03-15T00:39:31.964Z,73.71
2017-03-15T00:39:36.187Z,73.71
2017-03-15T00:39:40.628Z,73.71
2017-03-15T00:39:44.951Z,73.8
2017-03-15T00:39:49.416Z,73.42
2017-03-15T00:39:53.742Z,73.8
2017-03-15T00:39:58.186Z,73.71
2017-03-15T00:40:02.621Z,73.8
2017-03-15T00:40:07.053Z,73.71
2017-03-15T00:40:11.491Z,73.23
2017-03-15T00:40:15.814Z,73.8
2017-03-15T00:40:20.245Z,73.8
2017-03-15T00:40:24.326Z,73.14
2017-03-15T00:40:28.791Z,73.8
2017-03-15T00:40:33.117Z,73.9
2017-03-15T00:40:37.307Z,73.71
2017-03-15T00:40:41.622Z,73.61
2017-03-15T00:40:45.833Z,73.33
2017-03-15T00:40:50.269Z,73.23
2017-03-15T00:40:54.470Z,73.71
2017-03-15T00:40:58.902Z,73.42
2017-03-15T00:41:03.271Z,73.52
2017-03-15T00:41:07.715Z,73.8
2017-03-15T00:41:12.149Z,73.42
2017-03-15T00:41:16.608Z,73.9
2017-03-15T00:41:20.930Z,73.71
2017-03-15T00:41:25.246Z,73.99
2017-03-15T00:41:29.690Z,73.71
2017-03-15T00:41:33.899Z,73.9
2017-03-15T00:41:38.348Z,73.52
2017-03-15T00:41:42.666Z,73.8
2017-03-15T00:41:46.988Z,73.9
2017-03-15T00:41:51.308Z,73.61
2017-03-15T00:41:55.750Z,73.9
2017-03-15T00:42:00.076Z,73.71
2017-03-15T00:42:04.387Z,73.52
2017-03-15T00:42:08.704Z,73.52
2017-03-15T00:42:13.037Z,73.42
2017-03-15T00:42:17.472Z,73.61
2017-03-15T00:42:21.680Z,73.99
2017-03-15T00:42:25.998Z,73.52
2017-03-15T00:42:30.426Z,73.71
2017-03-15T00:42:34.751Z,73.71
2017-03-15T00:42:38.836Z,73.61
2017-03-15T00:42:43.271Z,73.42
2017-03-15T00:42:47.615Z,73.71
2017-03-15T00:42:52.062Z,73.71
2017-03-15T00:42:56.503Z,73.99
2017-03-15T00:43:00.968Z,73.8
2017-03-15T00:43:05.408Z,73.52
2017-03-15T00:43:09.843Z,73.42
2017-03-15T00:43:14.149Z,73.52
2017-03-15T00:43:18.467Z,73.71
2017-03-15T00:43:22.817Z,73.99
2017-03-15T00:43:27.172Z,74.08
2017-03-15T00:43:31.487Z,73.9
2017-03-15T00:43:35.691Z,73.99
2017-03-15T00:43:39.780Z,74.08
2017-03-15T00:43:44.222Z,73.8
2017-03-15T00:43:48.423Z,73.8
2017-03-15T00:43:52.740Z,73.8
2017-03-15T00:43:57.182Z,74.37
2017-03-15T00:44:01.618Z,74.18
2017-03-15T00:44:05.942Z,73.8
2017-03-15T00:44:10.365Z,73.71
2017-03-15T00:44:14.794Z,73.8
2017-03-15T00:44:19.229Z,73.9
2017-03-15T00:44:23.463Z,74.18
2017-03-15T00:44:27.774Z,74.18
2017-03-15T00:44:32.096Z,73.99
2017-03-15T00:44:36.408Z,74.27
2017-03-15T00:44:40.840Z,74.18
2017-03-15T00:44:45.195Z,74.27
2017-03-15T00:44:49.521Z,74.27
2017-03-15T00:44:53.834Z,73.99
2017-03-15T00:44:58.161Z,74.27
2017-03-15T00:45:02.581Z,73.9
2017-03-15T00:45:06.902Z,73.9
2017-03-15T00:45:11.330Z,74.37
2017-03-15T00:45:15.530Z,74.18
2017-03-15T00:45:19.852Z,74.27
2017-03-15T00:45:24.183Z,74.18
2017-03-15T00:45:28.619Z,74.18
2017-03-15T00:45:33.054Z,74.18
2017-03-15T00:45:37.366Z,74.27
2017-03-15T00:45:41.799Z,74.37
2017-03-15T00:45:46.122Z,74.37
2017-03-15T00:45:50.454Z,74.08
2017-03-15T00:45:54.895Z,74.56
2017-03-15T00:45:59.221Z,74.18
2017-03-15T00:46:03.743Z,74.37
2017-03-15T00:46:07.945Z,74.37
2017-03-15T00:46:12.393Z,74.18
2017-03-15T00:46:16.709Z,74.27
2017-03-15T00:46:21.139Z,74.47
2017-03-15T00:46:25.585Z,73.99
2017-03-15T00:46:29.899Z,74.08
2017-03-15T00:46:34.215Z,73.99
2017-03-15T00:46:38.342Z,74.18
2017-03-15T00:46:42.661Z,73.99
2017-03-15T00:46:46.864Z,74.18
2017-03-15T00:46:51.066Z,74.18
2017-03-15T00:46:55.512Z,74.18
2017-03-15T00:46:59.834Z,74.18
2017-03-15T00:47:04.029Z,74.27
2017-03-15T00:47:08.229Z,74.08
2017-03-15T00:47:12.544Z,74.08
2017-03-15T00:47:16.988Z,73.99
2017-03-15T00:47:21.197Z,74.27
2017-03-15T00:47:25.527Z,74.47
2017-03-15T00:47:29.981Z,74.37
2017-03-15T00:47:34.422Z,74.27
2017-03-15T00:47:38.509Z,74.47
2017-03-15T00:47:42.827Z,74.18
2017-03-15T00:47:47.141Z,74.47
2017-03-15T00:47:51.349Z,74.18
2017-03-15T00:47:55.570Z,74.47
2017-03-15T00:47:59.884Z,74.18
2017-03-15T00:48:04.303Z,74.27
2017-03-15T00:48:08.506Z,74.37
2017-03-15T00:48:12.712Z,74.27
2017-03-15T00:48:17.152Z,74.37
2017-03-15T00:48:21.244Z,74.27
2017-03-15T00:48:25.561Z,74.37
2017-03-15T00:48:30.008Z,74.37
2017-03-15T00:48:34.443Z,74.18
2017-03-15T00:48:38.761Z,74.18
2017-03-15T00:48:43.208Z,74.47
2017-03-15T00:48:47.533Z,74.47
2017-03-15T00:48:51.856Z,74.47
2017-03-15T00:48:56.060Z,74.27
2017-03-15T00:49:00.365Z,74.27
2017-03-15T00:49:04.984Z,74.47
2017-03-15T00:49:09.427Z,74.08
2017-03-15T00:49:13.899Z,74.18
2017-03-15T00:49:18.206Z,74.37
2017-03-15T00:49:22.535Z,74.37
2017-03-15T00:49:26.849Z,74.27
2017-03-15T00:49:31.172Z,74.27
2017-03-15T00:49:35.528Z,74.37
2017-03-15T00:49:39.846Z,74.18
2017-03-15T00:49:44.176Z,74.18
2017-03-15T00:49:48.384Z,74.18
2017-03-15T00:49:52.703Z,74.47
2017-03-15T00:49:57.029Z,73.99
2017-03-15T00:50:01.354Z,74.27
2017-03-15T00:50:05.442Z,74.18
2017-03-15T00:50:09.404Z,74.27
2017-03-15T00:50:13.843Z,74.27
2017-03-15T00:50:18.316Z,74.18
2017-03-15T00:50:22.644Z,74.27
2017-03-15T00:50:27.079Z,74.27
2017-03-15T00:50:31.279Z,74.27
2017-03-15T00:50:35.490Z,74.18
2017-03-15T00:50:39.805Z,73.99
2017-03-15T00:50:44.231Z,74.08
2017-03-15T00:50:48.426Z,74.08
2017-03-15T00:50:52.625Z,74.27
2017-03-15T00:50:56.952Z,74.66
2017-03-15T00:51:01.269Z,74.37
2017-03-15T00:51:05.593Z,74.18
2017-03-15T00:51:09.907Z,74.27
2017-03-15T00:51:14.337Z,74.18
2017-03-15T00:51:18.808Z,74.18
2017-03-15T00:51:23.023Z,74.18
2017-03-15T00:51:27.473Z,74.18
2017-03-15T00:51:31.796Z,74.18
2017-03-15T00:51:36.116Z,74.18
2017-03-15T00:51:40.316Z,74.27
2017-03-15T00:51:44.752Z,74.37
2017-03-15T00:51:49.066Z,74.18
2017-03-15T00:51:53.377Z,74.37
2017-03-15T00:51:57.699Z,74.18
2017-03-15T00:52:02.133Z,73.99
2017-03-15T00:52:06.453Z,74.47
2017-03-15T00:52:10.889Z,74.18
2017-03-15T00:52:15.332Z,73.8
2017-03-15T00:52:19.782Z,74.18
2017-03-15T00:52:23.986Z,74.27
2017-03-15T00:52:28.303Z,74.18
2017-03-15T00:52:32.629Z,74.37
2017-03-15T00:52:36.860Z,74.75
2017-03-15T00:52:41.297Z,74.75
2017-03-15T00:52:45.727Z,73.99
2017-03-15T00:52:49.799Z,74.18
2017-03-15T00:52:54.114Z,74.08
2017-03-15T00:52:58.425Z,74.18
2017-03-15T00:53:02.863Z,74.18
2017-03-15T00:53:07.064Z,74.18
2017-03-15T00:53:11.383Z,73.99
2017-03-15T00:53:15.743Z,74.18
2017-03-15T00:53:20.059Z,73.99
2017-03-15T00:53:24.493Z,74.27
2017-03-15T00:53:28.937Z,74.27
2017-03-15T00:53:33.262Z,74.27
2017-03-15T00:53:37.578Z,74.27
2017-03-15T00:53:42.016Z,74.08
2017-03-15T00:53:46.443Z,73.99
2017-03-15T00:53:50.523Z,74.56
2017-03-15T00:53:54.999Z,74.47
2017-03-15T00:53:59.320Z,74.47
2017-03-15T00:54:03.945Z,74.47
2017-03-15T00:54:08.026Z,74.66
2017-03-15T00:54:12.470Z,74.56
2017-03-15T00:54:16.899Z,74.47
2017-03-15T00:54:20.861Z,74.56
2017-03-15T00:54:25.194Z,74.56
2017-03-15T00:54:29.624Z,74.47
2017-03-15T00:54:34.063Z,74.47
2017-03-15T00:54:38.147Z,74.47
2017-03-15T00:54:42.469Z,74.37
2017-03-15T00:54:46.787Z,74.56
2017-03-15T00:54:51.105Z,74.47
2017-03-15T00:54:55.190Z,74.85
2017-03-15T00:54:59.514Z,74.56
2017-03-15T00:55:03.811Z,74.37
2017-03-15T00:55:08.238Z,74.56
2017-03-15T00:55:12.548Z,74.75
2017-03-15T00:55:16.983Z,74.66
2017-03-15T00:55:21.302Z,74.56
2017-03-15T00:55:25.613Z,74.75
2017-03-15T00:55:29.924Z,74.56
2017-03-15T00:55:34.245Z,74.75
2017-03-15T00:55:38.681Z,74.56
2017-03-15T00:55:43.010Z,74.56
2017-03-15T00:55:47.340Z,74.56
2017-03-15T00:55:51.543Z,74.56
2017-03-15T00:55:55.867Z,74.66
2017-03-15T00:56:00.184Z,74.66